sensor_id;sensor_type;location;lat;lon;timestamp;P1;durP1;ratioP1;P2;durP2;ratioP2
27706;SDS011;36332;51.384;0.040;2023-09-19T00:00:47;16.25;;;3.15;;
27706;SDS011;36332;51.384;0.040;2023-09-19T00:03:16;17.30;;;2.53;;
27706;SDS011;36332;51.384;0.040;2023-09-19T00:05:44;18.65;;;3.58;;
27706;SDS011;36332;51.384;0.040;2023-09-19T00:08:13;16.13;;;2.90;;
27706;SDS011;36332;51.384;0.040;2023-09-19T00:10:41;16.45;;;3.60;;
27706;SDS011;36332;51.384;0.040;2023-09-19T00:13:09;11.88;;;2.38;;
27706;SDS011;36332;51.384;0.040;2023-09-19T00:15:43;16.73;;;3.17;;
27706;SDS011;36332;51.384;0.040;2023-09-19T00:18:19;21.15;;;3.60;;
27706;SDS011;36332;51.384;0.040;2023-09-19T00:20:51;14.10;;;2.42;;
27706;SDS011;36332;51.384;0.040;2023-09-19T00:23:19;19.45;;;3.80;;
27706;SDS011;36332;51.384;0.040;2023-09-19T00:25:48;14.35;;;2.40;;
27706;SDS011;36332;51.384;0.040;2023-09-19T00:28:17;17.70;;;3.03;;
27706;SDS011;36332;51.384;0.040;2023-09-19T00:30:47;21.40;;;3.67;;
27706;SDS011;36332;51.384;0.040;2023-09-19T00:33:18;17.55;;;3.35;;
27706;SDS011;36332;51.384;0.040;2023-09-19T00:35:47;16.75;;;3.75;;
27706;SDS011;36332;51.384;0.040;2023-09-19T00:38:16;22.60;;;3.13;;
27706;SDS011;36332;51.384;0.040;2023-09-19T00:40:45;14.23;;;2.70;;
27706;SDS011;36332;51.384;0.040;2023-09-19T00:43:13;16.30;;;2.28;;
27706;SDS011;36332;51.384;0.040;2023-09-19T00:45:45;14.00;;;2.05;;
27706;SDS011;36332;51.384;0.040;2023-09-19T00:48:15;14.95;;;2.83;;
27706;SDS011;36332;51.384;0.040;2023-09-19T00:50:45;17.27;;;2.97;;
27706;SDS011;36332;51.384;0.040;2023-09-19T00:53:19;16.55;;;2.92;;
27706;SDS011;36332;51.384;0.040;2023-09-19T00:55:50;11.52;;;2.28;;
27706;SDS011;36332;51.384;0.040;2023-09-19T00:58:19;20.80;;;3.22;;
27706;SDS011;36332;51.384;0.040;2023-09-19T01:00:48;11.32;;;2.53;;
27706;SDS011;36332;51.384;0.040;2023-09-19T01:03:17;18.42;;;3.63;;
27706;SDS011;36332;51.384;0.040;2023-09-19T01:05:46;13.57;;;3.22;;
27706;SDS011;36332;51.384;0.040;2023-09-19T01:08:13;14.85;;;2.88;;
27706;SDS011;36332;51.384;0.040;2023-09-19T01:10:55;19.98;;;3.50;;
27706;SDS011;36332;51.384;0.040;2023-09-19T01:16:26;15.38;;;2.50;;
27706;SDS011;36332;51.384;0.040;2023-09-19T01:21:52;24.08;;;4.68;;
27706;SDS011;36332;51.384;0.040;2023-09-19T01:30:35;18.30;;;3.92;;
27706;SDS011;36332;51.384;0.040;2023-09-19T01:33:06;16.50;;;3.40;;
27706;SDS011;36332;51.384;0.040;2023-09-19T01:35:35;13.13;;;4.05;;
27706;SDS011;36332;51.384;0.040;2023-09-19T01:38:06;17.85;;;3.83;;
27706;SDS011;36332;51.384;0.040;2023-09-19T01:40:41;23.95;;;3.25;;
27706;SDS011;36332;51.384;0.040;2023-09-19T01:43:12;20.75;;;3.22;;
27706;SDS011;36332;51.384;0.040;2023-09-19T01:45:57;17.95;;;2.92;;
27706;SDS011;36332;51.384;0.040;2023-09-19T01:51:30;14.82;;;3.13;;
27706;SDS011;36332;51.384;0.040;2023-09-19T01:54:03;25.02;;;3.20;;
27706;SDS011;36332;51.384;0.040;2023-09-19T01:56:43;23.63;;;3.05;;
27706;SDS011;36332;51.384;0.040;2023-09-19T01:59:17;19.38;;;4.30;;
27706;SDS011;36332;51.384;0.040;2023-09-19T02:01:51;11.30;;;2.65;;
27706;SDS011;36332;51.384;0.040;2023-09-19T02:04:19;17.58;;;2.78;;
27706;SDS011;36332;51.384;0.040;2023-09-19T02:06:47;15.95;;;3.42;;
27706;SDS011;36332;51.384;0.040;2023-09-19T02:09:15;15.18;;;3.03;;
27706;SDS011;36332;51.384;0.040;2023-09-19T02:11:43;24.35;;;3.75;;
27706;SDS011;36332;51.384;0.040;2023-09-19T02:14:10;18.70;;;3.03;;
27706;SDS011;36332;51.384;0.040;2023-09-19T02:16:38;21.63;;;3.53;;
27706;SDS011;36332;51.384;0.040;2023-09-19T02:19:06;17.63;;;2.90;;
27706;SDS011;36332;51.384;0.040;2023-09-19T02:21:34;18.33;;;3.15;;
27706;SDS011;36332;51.384;0.040;2023-09-19T02:24:02;19.27;;;3.45;;
27706;SDS011;36332;51.384;0.040;2023-09-19T02:26:31;20.73;;;2.70;;
27706;SDS011;36332;51.384;0.040;2023-09-19T02:28:59;24.38;;;3.35;;
27706;SDS011;36332;51.384;0.040;2023-09-19T02:31:28;21.40;;;3.47;;
27706;SDS011;36332;51.384;0.040;2023-09-19T02:33:56;25.42;;;3.40;;
27706;SDS011;36332;51.384;0.040;2023-09-19T02:36:24;23.52;;;3.35;;
27706;SDS011;36332;51.384;0.040;2023-09-19T02:38:52;20.00;;;2.92;;
27706;SDS011;36332;51.384;0.040;2023-09-19T02:41:21;21.38;;;3.38;;
27706;SDS011;36332;51.384;0.040;2023-09-19T02:43:49;12.93;;;2.75;;
27706;SDS011;36332;51.384;0.040;2023-09-19T02:46:16;17.98;;;3.42;;
27706;SDS011;36332;51.384;0.040;2023-09-19T02:48:44;18.42;;;3.78;;
27706;SDS011;36332;51.384;0.040;2023-09-19T02:51:12;19.20;;;3.78;;
27706;SDS011;36332;51.384;0.040;2023-09-19T02:53:41;21.50;;;3.58;;
27706;SDS011;36332;51.384;0.040;2023-09-19T02:56:09;22.15;;;3.85;;
27706;SDS011;36332;51.384;0.040;2023-09-19T02:58:39;29.40;;;3.45;;
27706;SDS011;36332;51.384;0.040;2023-09-19T03:01:09;26.70;;;4.85;;
27706;SDS011;36332;51.384;0.040;2023-09-19T03:03:38;18.33;;;3.25;;
27706;SDS011;36332;51.384;0.040;2023-09-19T03:06:07;17.70;;;3.50;;
27706;SDS011;36332;51.384;0.040;2023-09-19T03:08:37;19.50;;;3.42;;
27706;SDS011;36332;51.384;0.040;2023-09-19T03:11:06;25.45;;;4.75;;
27706;SDS011;36332;51.384;0.040;2023-09-19T03:13:40;19.00;;;4.03;;
27706;SDS011;36332;51.384;0.040;2023-09-19T03:16:10;23.77;;;3.55;;
27706;SDS011;36332;51.384;0.040;2023-09-19T03:18:42;13.18;;;3.05;;
27706;SDS011;36332;51.384;0.040;2023-09-19T03:21:10;26.17;;;4.30;;
27706;SDS011;36332;51.384;0.040;2023-09-19T03:23:40;21.58;;;3.63;;
27706;SDS011;36332;51.384;0.040;2023-09-19T03:26:11;18.67;;;3.40;;
27706;SDS011;36332;51.384;0.040;2023-09-19T03:28:41;17.52;;;3.63;;
27706;SDS011;36332;51.384;0.040;2023-09-19T03:31:10;21.98;;;3.95;;
27706;SDS011;36332;51.384;0.040;2023-09-19T03:33:38;19.08;;;3.85;;
27706;SDS011;36332;51.384;0.040;2023-09-19T03:36:06;26.48;;;3.50;;
27706;SDS011;36332;51.384;0.040;2023-09-19T03:38:34;18.42;;;4.13;;
27706;SDS011;36332;51.384;0.040;2023-09-19T03:41:02;31.42;;;3.95;;
27706;SDS011;36332;51.384;0.040;2023-09-19T03:43:31;17.13;;;3.17;;
27706;SDS011;36332;51.384;0.040;2023-09-19T03:46:03;22.35;;;3.92;;
27706;SDS011;36332;51.384;0.040;2023-09-19T03:48:33;22.15;;;3.85;;
27706;SDS011;36332;51.384;0.040;2023-09-19T03:51:02;22.60;;;3.22;;
27706;SDS011;36332;51.384;0.040;2023-09-19T03:53:30;19.38;;;2.70;;
27706;SDS011;36332;51.384;0.040;2023-09-19T03:55:57;21.48;;;3.55;;
27706;SDS011;36332;51.384;0.040;2023-09-19T03:58:28;25.75;;;3.95;;
27706;SDS011;36332;51.384;0.040;2023-09-19T04:00:55;32.95;;;4.85;;
27706;SDS011;36332;51.384;0.040;2023-09-19T04:03:27;16.05;;;3.45;;
27706;SDS011;36332;51.384;0.040;2023-09-19T04:06:03;22.23;;;3.58;;
27706;SDS011;36332;51.384;0.040;2023-09-19T04:08:31;19.70;;;3.63;;
27706;SDS011;36332;51.384;0.040;2023-09-19T04:10:59;22.15;;;3.17;;
27706;SDS011;36332;51.384;0.040;2023-09-19T04:13:27;20.30;;;3.38;;
27706;SDS011;36332;51.384;0.040;2023-09-19T04:15:55;28.05;;;5.20;;
27706;SDS011;36332;51.384;0.040;2023-09-19T04:18:23;25.17;;;3.13;;
27706;SDS011;36332;51.384;0.040;2023-09-19T04:20:52;14.10;;;2.55;;
27706;SDS011;36332;51.384;0.040;2023-09-19T04:23:21;19.98;;;3.17;;
27706;SDS011;36332;51.384;0.040;2023-09-19T04:25:48;22.10;;;2.85;;
27706;SDS011;36332;51.384;0.040;2023-09-19T04:28:17;29.83;;;5.20;;
27706;SDS011;36332;51.384;0.040;2023-09-19T04:30:45;21.20;;;2.97;;
27706;SDS011;36332;51.384;0.040;2023-09-19T04:33:13;12.75;;;2.92;;
27706;SDS011;36332;51.384;0.040;2023-09-19T04:35:41;17.20;;;3.55;;
27706;SDS011;36332;51.384;0.040;2023-09-19T04:38:12;20.13;;;3.22;;
27706;SDS011;36332;51.384;0.040;2023-09-19T04:40:40;22.08;;;3.42;;
27706;SDS011;36332;51.384;0.040;2023-09-19T04:43:08;22.98;;;3.30;;
27706;SDS011;36332;51.384;0.040;2023-09-19T04:45:36;21.58;;;3.47;;
27706;SDS011;36332;51.384;0.040;2023-09-19T04:48:06;29.13;;;3.85;;
27706;SDS011;36332;51.384;0.040;2023-09-19T04:50:35;22.38;;;4.63;;
27706;SDS011;36332;51.384;0.040;2023-09-19T04:53:04;30.10;;;5.07;;
27706;SDS011;36332;51.384;0.040;2023-09-19T04:55:32;21.98;;;3.33;;
27706;SDS011;36332;51.384;0.040;2023-09-19T04:58:00;23.05;;;3.47;;
27706;SDS011;36332;51.384;0.040;2023-09-19T05:00:27;25.85;;;4.40;;
27706;SDS011;36332;51.384;0.040;2023-09-19T05:02:57;30.20;;;3.60;;
27706;SDS011;36332;51.384;0.040;2023-09-19T05:05:25;20.30;;;3.58;;
27706;SDS011;36332;51.384;0.040;2023-09-19T05:07:53;21.48;;;3.15;;
27706;SDS011;36332;51.384;0.040;2023-09-19T05:10:23;27.48;;;3.15;;
27706;SDS011;36332;51.384;0.040;2023-09-19T05:12:52;29.15;;;4.95;;
27706;SDS011;36332;51.384;0.040;2023-09-19T05:15:20;24.55;;;3.95;;
27706;SDS011;36332;51.384;0.040;2023-09-19T05:17:48;21.75;;;4.75;;
27706;SDS011;36332;51.384;0.040;2023-09-19T05:20:24;25.38;;;3.42;;
27706;SDS011;36332;51.384;0.040;2023-09-19T05:23:03;19.90;;;3.03;;
27706;SDS011;36332;51.384;0.040;2023-09-19T05:25:36;20.88;;;3.45;;
27706;SDS011;36332;51.384;0.040;2023-09-19T05:28:06;17.40;;;3.55;;
27706;SDS011;36332;51.384;0.040;2023-09-19T05:30:35;23.38;;;5.00;;
27706;SDS011;36332;51.384;0.040;2023-09-19T05:33:07;19.55;;;2.72;;
27706;SDS011;36332;51.384;0.040;2023-09-19T05:35:35;22.08;;;3.88;;
27706;SDS011;36332;51.384;0.040;2023-09-19T05:38:09;21.67;;;3.40;;
27706;SDS011;36332;51.384;0.040;2023-09-19T05:40:39;22.42;;;3.65;;
27706;SDS011;36332;51.384;0.040;2023-09-19T05:43:09;20.85;;;3.28;;
27706;SDS011;36332;51.384;0.040;2023-09-19T05:45:36;15.70;;;2.58;;
27706;SDS011;36332;51.384;0.040;2023-09-19T05:48:11;17.55;;;4.00;;
27706;SDS011;36332;51.384;0.040;2023-09-19T05:50:40;15.52;;;2.75;;
27706;SDS011;36332;51.384;0.040;2023-09-19T05:53:09;20.02;;;3.40;;
27706;SDS011;36332;51.384;0.040;2023-09-19T05:55:40;21.77;;;3.28;;
27706;SDS011;36332;51.384;0.040;2023-09-19T05:58:08;20.95;;;3.45;;
27706;SDS011;36332;51.384;0.040;2023-09-19T06:00:37;20.98;;;3.63;;
27706;SDS011;36332;51.384;0.040;2023-09-19T06:03:06;20.35;;;4.00;;
27706;SDS011;36332;51.384;0.040;2023-09-19T06:05:35;12.63;;;3.60;;
27706;SDS011;36332;51.384;0.040;2023-09-19T06:08:02;28.23;;;4.07;;
27706;SDS011;36332;51.384;0.040;2023-09-19T06:10:35;31.30;;;4.82;;
27706;SDS011;36332;51.384;0.040;2023-09-19T06:13:03;19.05;;;3.05;;
27706;SDS011;36332;51.384;0.040;2023-09-19T06:15:32;26.92;;;3.95;;
27706;SDS011;36332;51.384;0.040;2023-09-19T06:18:00;19.02;;;3.20;;
27706;SDS011;36332;51.384;0.040;2023-09-19T06:20:29;22.23;;;3.22;;
27706;SDS011;36332;51.384;0.040;2023-09-19T06:22:58;10.32;;;2.10;;
27706;SDS011;36332;51.384;0.040;2023-09-19T06:25:26;15.85;;;2.60;;
27706;SDS011;36332;51.384;0.040;2023-09-19T06:27:54;5.40;;;1.50;;
27706;SDS011;36332;51.384;0.040;2023-09-19T06:30:23;8.60;;;1.88;;
27706;SDS011;36332;51.384;0.040;2023-09-19T06:32:56;8.07;;;1.83;;
27706;SDS011;36332;51.384;0.040;2023-09-19T06:35:25;12.75;;;2.40;;
27706;SDS011;36332;51.384;0.040;2023-09-19T06:37:53;15.23;;;2.03;;
27706;SDS011;36332;51.384;0.040;2023-09-19T06:40:25;13.20;;;2.17;;
27706;SDS011;36332;51.384;0.040;2023-09-19T06:42:55;15.02;;;2.47;;
27706;SDS011;36332;51.384;0.040;2023-09-19T06:45:23;12.82;;;2.53;;
27706;SDS011;36332;51.384;0.040;2023-09-19T06:47:54;11.02;;;2.10;;
27706;SDS011;36332;51.384;0.040;2023-09-19T06:50:26;15.27;;;2.35;;
27706;SDS011;36332;51.384;0.040;2023-09-19T06:52:55;17.85;;;3.55;;
27706;SDS011;36332;51.384;0.040;2023-09-19T06:55:25;16.60;;;2.33;;
27706;SDS011;36332;51.384;0.040;2023-09-19T06:57:59;11.02;;;1.98;;
27706;SDS011;36332;51.384;0.040;2023-09-19T07:00:27;14.43;;;2.22;;
27706;SDS011;36332;51.384;0.040;2023-09-19T07:03:05;17.80;;;3.42;;
27706;SDS011;36332;51.384;0.040;2023-09-19T07:05:39;14.90;;;2.03;;
27706;SDS011;36332;51.384;0.040;2023-09-19T07:08:08;11.68;;;2.00;;
27706;SDS011;36332;51.384;0.040;2023-09-19T07:10:40;19.05;;;2.78;;
27706;SDS011;36332;51.384;0.040;2023-09-19T07:13:12;15.80;;;3.88;;
27706;SDS011;36332;51.384;0.040;2023-09-19T07:15:40;9.95;;;1.75;;
27706;SDS011;36332;51.384;0.040;2023-09-19T07:18:14;30.95;;;3.10;;
27706;SDS011;36332;51.384;0.040;2023-09-19T07:20:44;5.05;;;1.52;;
27706;SDS011;36332;51.384;0.040;2023-09-19T07:23:19;17.88;;;2.58;;
27706;SDS011;36332;51.384;0.040;2023-09-19T07:25:49;16.17;;;2.40;;
27706;SDS011;36332;51.384;0.040;2023-09-19T07:28:17;14.30;;;3.05;;
27706;SDS011;36332;51.384;0.040;2023-09-19T07:30:46;7.97;;;2.40;;
27706;SDS011;36332;51.384;0.040;2023-09-19T07:33:14;7.05;;;2.17;;
27706;SDS011;36332;51.384;0.040;2023-09-19T07:35:44;10.85;;;2.30;;
27706;SDS011;36332;51.384;0.040;2023-09-19T07:38:13;14.23;;;2.47;;
27706;SDS011;36332;51.384;0.040;2023-09-19T07:40:41;12.73;;;3.72;;
27706;SDS011;36332;51.384;0.040;2023-09-19T07:43:09;7.78;;;2.22;;
27706;SDS011;36332;51.384;0.040;2023-09-19T07:45:39;15.85;;;2.65;;
27706;SDS011;36332;51.384;0.040;2023-09-19T07:48:07;13.13;;;2.30;;
27706;SDS011;36332;51.384;0.040;2023-09-19T07:50:41;9.80;;;2.50;;
27706;SDS011;36332;51.384;0.040;2023-09-19T07:53:12;10.27;;;2.90;;
27706;SDS011;36332;51.384;0.040;2023-09-19T07:55:40;12.57;;;2.45;;
27706;SDS011;36332;51.384;0.040;2023-09-19T07:58:08;14.20;;;2.53;;
27706;SDS011;36332;51.384;0.040;2023-09-19T08:00:36;11.45;;;2.58;;
27706;SDS011;36332;51.384;0.040;2023-09-19T08:03:06;15.15;;;2.85;;
27706;SDS011;36332;51.384;0.040;2023-09-19T08:05:44;23.85;;;3.50;;
27706;SDS011;36332;51.384;0.040;2023-09-19T08:08:18;20.70;;;4.15;;
27706;SDS011;36332;51.384;0.040;2023-09-19T08:10:55;32.33;;;4.97;;
27706;SDS011;36332;51.384;0.040;2023-09-19T08:13:24;22.73;;;3.90;;
27706;SDS011;36332;51.384;0.040;2023-09-19T08:15:52;19.55;;;4.43;;
27706;SDS011;36332;51.384;0.040;2023-09-19T08:18:20;24.27;;;4.93;;
27706;SDS011;36332;51.384;0.040;2023-09-19T08:20:51;15.75;;;3.75;;
27706;SDS011;36332;51.384;0.040;2023-09-19T08:23:20;20.98;;;5.15;;
27706;SDS011;36332;51.384;0.040;2023-09-19T08:25:48;20.65;;;5.20;;
27706;SDS011;36332;51.384;0.040;2023-09-19T08:28:16;18.70;;;4.78;;
27706;SDS011;36332;51.384;0.040;2023-09-19T08:30:50;19.55;;;3.83;;
27706;SDS011;36332;51.384;0.040;2023-09-19T08:33:18;19.27;;;5.07;;
27706;SDS011;36332;51.384;0.040;2023-09-19T08:35:46;20.30;;;3.70;;
27706;SDS011;36332;51.384;0.040;2023-09-19T08:38:15;22.50;;;3.80;;
27706;SDS011;36332;51.384;0.040;2023-09-19T08:40:43;24.40;;;5.57;;
27706;SDS011;36332;51.384;0.040;2023-09-19T08:43:12;20.13;;;4.22;;
27706;SDS011;36332;51.384;0.040;2023-09-19T08:45:40;24.38;;;5.13;;
27706;SDS011;36332;51.384;0.040;2023-09-19T08:51:00;22.17;;;3.95;;
27706;SDS011;36332;51.384;0.040;2023-09-19T08:53:34;30.70;;;5.03;;
27706;SDS011;36332;51.384;0.040;2023-09-19T08:56:21;17.55;;;4.72;;
27706;SDS011;36332;51.384;0.040;2023-09-19T08:58:55;28.05;;;5.38;;
27706;SDS011;36332;51.384;0.040;2023-09-19T09:01:29;23.50;;;4.43;;
27706;SDS011;36332;51.384;0.040;2023-09-19T09:04:01;21.02;;;5.20;;
27706;SDS011;36332;51.384;0.040;2023-09-19T09:06:32;31.40;;;5.07;;
27706;SDS011;36332;51.384;0.040;2023-09-19T09:09:02;24.35;;;5.15;;
27706;SDS011;36332;51.384;0.040;2023-09-19T09:11:33;27.77;;;6.22;;
27706;SDS011;36332;51.384;0.040;2023-09-19T09:14:01;24.88;;;5.03;;
27706;SDS011;36332;51.384;0.040;2023-09-19T09:16:29;29.10;;;5.35;;
27706;SDS011;36332;51.384;0.040;2023-09-19T09:18:58;32.25;;;5.60;;
27706;SDS011;36332;51.384;0.040;2023-09-19T09:21:25;30.60;;;5.30;;
27706;SDS011;36332;51.384;0.040;2023-09-19T09:23:54;30.33;;;4.88;;
27706;SDS011;36332;51.384;0.040;2023-09-19T09:26:41;31.63;;;5.65;;
27706;SDS011;36332;51.384;0.040;2023-09-19T09:29:14;28.27;;;6.30;;
27706;SDS011;36332;51.384;0.040;2023-09-19T09:31:47;30.08;;;5.13;;
27706;SDS011;36332;51.384;0.040;2023-09-19T09:34:15;26.83;;;5.80;;
27706;SDS011;36332;51.384;0.040;2023-09-19T09:36:43;30.25;;;5.70;;
27706;SDS011;36332;51.384;0.040;2023-09-19T09:39:28;23.48;;;5.50;;
27706;SDS011;36332;51.384;0.040;2023-09-19T09:41:59;23.23;;;5.07;;
27706;SDS011;36332;51.384;0.040;2023-09-19T09:44:27;24.17;;;5.75;;
27706;SDS011;36332;51.384;0.040;2023-09-19T09:46:59;20.90;;;4.65;;
27706;SDS011;36332;51.384;0.040;2023-09-19T09:49:48;24.50;;;4.93;;
27706;SDS011;36332;51.384;0.040;2023-09-19T09:52:44;27.70;;;5.82;;
27706;SDS011;36332;51.384;0.040;2023-09-19T09:55:12;26.15;;;4.55;;
27706;SDS011;36332;51.384;0.040;2023-09-19T09:57:39;29.73;;;5.47;;
27706;SDS011;36332;51.384;0.040;2023-09-19T10:00:09;32.67;;;7.03;;
27706;SDS011;36332;51.384;0.040;2023-09-19T10:02:40;22.92;;;5.20;;
27706;SDS011;36332;51.384;0.040;2023-09-19T10:05:16;41.05;;;7.53;;
27706;SDS011;36332;51.384;0.040;2023-09-19T10:07:52;33.55;;;6.60;;
27706;SDS011;36332;51.384;0.040;2023-09-19T10:13:21;29.48;;;7.95;;
27706;SDS011;36332;51.384;0.040;2023-09-19T10:15:54;35.58;;;7.25;;
27706;SDS011;36332;51.384;0.040;2023-09-19T10:18:25;37.90;;;6.63;;
27706;SDS011;36332;51.384;0.040;2023-09-19T10:20:56;32.30;;;6.35;;
27706;SDS011;36332;51.384;0.040;2023-09-19T10:23:28;25.65;;;6.57;;
27706;SDS011;36332;51.384;0.040;2023-09-19T10:26:01;34.20;;;7.47;;
27706;SDS011;36332;51.384;0.040;2023-09-19T10:28:29;32.45;;;8.15;;
27706;SDS011;36332;51.384;0.040;2023-09-19T10:30:59;31.88;;;7.65;;
27706;SDS011;36332;51.384;0.040;2023-09-19T10:33:29;41.75;;;8.48;;
27706;SDS011;36332;51.384;0.040;2023-09-19T10:36:05;27.55;;;6.15;;
27706;SDS011;36332;51.384;0.040;2023-09-19T10:38:33;47.95;;;7.63;;
27706;SDS011;36332;51.384;0.040;2023-09-19T10:41:04;25.15;;;6.60;;
27706;SDS011;36332;51.384;0.040;2023-09-19T10:43:33;27.38;;;6.45;;
27706;SDS011;36332;51.384;0.040;2023-09-19T10:46:06;31.98;;;6.57;;
27706;SDS011;36332;51.384;0.040;2023-09-19T10:48:38;42.88;;;7.82;;
27706;SDS011;36332;51.384;0.040;2023-09-19T10:51:09;30.95;;;6.80;;
27706;SDS011;36332;51.384;0.040;2023-09-19T10:53:47;40.20;;;8.57;;
27706;SDS011;36332;51.384;0.040;2023-09-19T10:56:26;34.17;;;7.10;;
27706;SDS011;36332;51.384;0.040;2023-09-19T10:59:09;30.35;;;5.60;;
27706;SDS011;36332;51.384;0.040;2023-09-19T11:04:29;29.17;;;6.93;;
27706;SDS011;36332;51.384;0.040;2023-09-19T11:09:52;32.08;;;6.78;;
27706;SDS011;36332;51.384;0.040;2023-09-19T11:14:58;29.17;;;6.25;;
27706;SDS011;36332;51.384;0.040;2023-09-19T11:17:30;23.83;;;6.10;;
27706;SDS011;36332;51.384;0.040;2023-09-19T11:30:34;27.83;;;6.13;;
27706;SDS011;36332;51.384;0.040;2023-09-19T11:46:32;30.48;;;6.28;;
27706;SDS011;36332;51.384;0.040;2023-09-19T11:49:07;24.10;;;5.03;;
27706;SDS011;36332;51.384;0.040;2023-09-19T11:51:40;17.77;;;5.10;;
27706;SDS011;36332;51.384;0.040;2023-09-19T11:54:10;26.52;;;5.75;;
27706;SDS011;36332;51.384;0.040;2023-09-19T11:56:49;20.25;;;5.60;;
27706;SDS011;36332;51.384;0.040;2023-09-19T11:59:21;21.52;;;5.47;;
27706;SDS011;36332;51.384;0.040;2023-09-19T12:01:53;19.92;;;5.47;;
27706;SDS011;36332;51.384;0.040;2023-09-19T12:04:35;32.90;;;6.50;;
27706;SDS011;36332;51.384;0.040;2023-09-19T12:07:09;27.50;;;4.55;;
27706;SDS011;36332;51.384;0.040;2023-09-19T12:09:47;22.33;;;5.22;;
27706;SDS011;36332;51.384;0.040;2023-09-19T12:12:20;26.55;;;6.78;;
27706;SDS011;36332;51.384;0.040;2023-09-19T12:14:58;18.63;;;4.80;;
27706;SDS011;36332;51.384;0.040;2023-09-19T12:17:36;22.55;;;6.38;;
27706;SDS011;36332;51.384;0.040;2023-09-19T12:20:09;18.27;;;4.78;;
27706;SDS011;36332;51.384;0.040;2023-09-19T12:25:11;20.90;;;4.53;;
27706;SDS011;36332;51.384;0.040;2023-09-19T12:27:46;22.88;;;4.55;;
27706;SDS011;36332;51.384;0.040;2023-09-19T12:30:20;22.20;;;4.88;;
27706;SDS011;36332;51.384;0.040;2023-09-19T12:32:55;17.60;;;4.85;;
27706;SDS011;36332;51.384;0.040;2023-09-19T12:35:29;23.88;;;5.07;;
27706;SDS011;36332;51.384;0.040;2023-09-19T12:38:02;18.27;;;5.35;;
27706;SDS011;36332;51.384;0.040;2023-09-19T12:40:31;19.42;;;4.35;;
27706;SDS011;36332;51.384;0.040;2023-09-19T12:43:01;22.42;;;4.50;;
27706;SDS011;36332;51.384;0.040;2023-09-19T12:45:30;14.23;;;3.47;;
27706;SDS011;36332;51.384;0.040;2023-09-19T12:48:20;17.33;;;4.47;;
27706;SDS011;36332;51.384;0.040;2023-09-19T12:50:58;16.48;;;4.20;;
27706;SDS011;36332;51.384;0.040;2023-09-19T12:53:40;16.33;;;3.78;;
27706;SDS011;36332;51.384;0.040;2023-09-19T12:56:17;12.25;;;3.78;;
27706;SDS011;36332;51.384;0.040;2023-09-19T12:58:55;14.73;;;3.58;;
27706;SDS011;36332;51.384;0.040;2023-09-19T13:01:26;14.75;;;3.05;;
27706;SDS011;36332;51.384;0.040;2023-09-19T13:06:48;19.83;;;4.65;;
27706;SDS011;36332;51.384;0.040;2023-09-19T13:09:18;14.13;;;4.43;;
27706;SDS011;36332;51.384;0.040;2023-09-19T13:11:47;23.30;;;5.28;;
27706;SDS011;36332;51.384;0.040;2023-09-19T13:14:25;19.83;;;5.60;;
27706;SDS011;36332;51.384;0.040;2023-09-19T13:17:05;17.38;;;5.05;;
27706;SDS011;36332;51.384;0.040;2023-09-19T13:19:44;21.88;;;4.70;;
27706;SDS011;36332;51.384;0.040;2023-09-19T13:27:33;18.92;;;4.85;;
27706;SDS011;36332;51.384;0.040;2023-09-19T13:30:01;17.63;;;5.10;;
27706;SDS011;36332;51.384;0.040;2023-09-19T13:32:29;19.98;;;4.10;;
27706;SDS011;36332;51.384;0.040;2023-09-19T13:34:59;21.77;;;5.40;;
27706;SDS011;36332;51.384;0.040;2023-09-19T13:37:28;16.40;;;4.13;;
27706;SDS011;36332;51.384;0.040;2023-09-19T13:39:55;23.15;;;5.03;;
27706;SDS011;36332;51.384;0.040;2023-09-19T13:42:24;17.52;;;4.97;;
27706;SDS011;36332;51.384;0.040;2023-09-19T13:44:52;13.60;;;4.43;;
27706;SDS011;36332;51.384;0.040;2023-09-19T13:47:20;20.52;;;4.90;;
27706;SDS011;36332;51.384;0.040;2023-09-19T13:49:51;24.55;;;4.07;;
27706;SDS011;36332;51.384;0.040;2023-09-19T13:52:20;14.00;;;4.47;;
27706;SDS011;36332;51.384;0.040;2023-09-19T13:54:50;18.02;;;4.57;;
27706;SDS011;36332;51.384;0.040;2023-09-19T13:57:17;13.80;;;3.58;;
27706;SDS011;36332;51.384;0.040;2023-09-19T13:59:45;19.58;;;4.72;;
27706;SDS011;36332;51.384;0.040;2023-09-19T14:02:12;13.82;;;4.22;;
27706;SDS011;36332;51.384;0.040;2023-09-19T14:04:41;20.23;;;4.22;;
27706;SDS011;36332;51.384;0.040;2023-09-19T14:07:09;15.70;;;3.80;;
27706;SDS011;36332;51.384;0.040;2023-09-19T14:09:37;20.05;;;4.00;;
27706;SDS011;36332;51.384;0.040;2023-09-19T14:12:05;13.88;;;3.95;;
27706;SDS011;36332;51.384;0.040;2023-09-19T14:14:33;17.58;;;3.17;;
27706;SDS011;36332;51.384;0.040;2023-09-19T14:17:01;12.98;;;3.50;;
27706;SDS011;36332;51.384;0.040;2023-09-19T14:19:29;10.45;;;3.28;;
27706;SDS011;36332;51.384;0.040;2023-09-19T14:21:57;12.30;;;3.42;;
27706;SDS011;36332;51.384;0.040;2023-09-19T14:24:25;6.47;;;2.33;;
27706;SDS011;36332;51.384;0.040;2023-09-19T14:26:52;13.43;;;2.45;;
27706;SDS011;36332;51.384;0.040;2023-09-19T14:29:20;6.95;;;2.30;;
27706;SDS011;36332;51.384;0.040;2023-09-19T14:31:51;11.05;;;2.90;;
27706;SDS011;36332;51.384;0.040;2023-09-19T14:34:19;10.50;;;2.75;;
27706;SDS011;36332;51.384;0.040;2023-09-19T14:36:47;9.70;;;2.70;;
27706;SDS011;36332;51.384;0.040;2023-09-19T14:39:16;16.55;;;4.63;;
27706;SDS011;36332;51.384;0.040;2023-09-19T14:41:43;14.40;;;3.65;;
27706;SDS011;36332;51.384;0.040;2023-09-19T14:44:11;19.42;;;4.13;;
27706;SDS011;36332;51.384;0.040;2023-09-19T14:46:39;17.20;;;4.10;;
27706;SDS011;36332;51.384;0.040;2023-09-19T14:49:07;13.50;;;3.45;;
27706;SDS011;36332;51.384;0.040;2023-09-19T14:51:37;13.93;;;3.67;;
27706;SDS011;36332;51.384;0.040;2023-09-19T14:54:06;13.98;;;4.32;;
27706;SDS011;36332;51.384;0.040;2023-09-19T14:56:35;15.35;;;3.70;;
27706;SDS011;36332;51.384;0.040;2023-09-19T14:59:02;12.40;;;3.50;;
27706;SDS011;36332;51.384;0.040;2023-09-19T15:01:31;14.23;;;3.10;;
27706;SDS011;36332;51.384;0.040;2023-09-19T15:03:59;13.75;;;3.85;;
27706;SDS011;36332;51.384;0.040;2023-09-19T15:06:28;15.23;;;4.25;;
27706;SDS011;36332;51.384;0.040;2023-09-19T15:08:56;15.80;;;3.97;;
27706;SDS011;36332;51.384;0.040;2023-09-19T15:11:24;9.32;;;3.50;;
27706;SDS011;36332;51.384;0.040;2023-09-19T15:13:52;14.13;;;3.22;;
27706;SDS011;36332;51.384;0.040;2023-09-19T15:16:23;17.55;;;4.07;;
27706;SDS011;36332;51.384;0.040;2023-09-19T15:18:51;20.08;;;4.57;;
27706;SDS011;36332;51.384;0.040;2023-09-19T15:21:19;9.80;;;3.53;;
27706;SDS011;36332;51.384;0.040;2023-09-19T15:23:46;19.05;;;3.85;;
27706;SDS011;36332;51.384;0.040;2023-09-19T15:26:14;17.33;;;3.85;;
27706;SDS011;36332;51.384;0.040;2023-09-19T15:28:49;18.02;;;3.80;;
27706;SDS011;36332;51.384;0.040;2023-09-19T15:31:17;16.17;;;4.75;;
27706;SDS011;36332;51.384;0.040;2023-09-19T15:33:44;14.07;;;4.22;;
27706;SDS011;36332;51.384;0.040;2023-09-19T15:36:13;14.70;;;3.47;;
27706;SDS011;36332;51.384;0.040;2023-09-19T15:39:15;16.58;;;3.20;;
27706;SDS011;36332;51.384;0.040;2023-09-19T15:41:40;18.83;;;3.92;;
27706;SDS011;36332;51.384;0.040;2023-09-19T15:44:12;11.98;;;3.17;;
27706;SDS011;36332;51.384;0.040;2023-09-19T15:46:41;21.70;;;3.45;;
27706;SDS011;36332;51.384;0.040;2023-09-19T15:49:09;16.35;;;3.17;;
27706;SDS011;36332;51.384;0.040;2023-09-19T15:51:37;15.35;;;3.72;;
27706;SDS011;36332;51.384;0.040;2023-09-19T15:54:10;14.55;;;3.10;;
27706;SDS011;36332;51.384;0.040;2023-09-19T15:56:41;21.80;;;3.92;;
27706;SDS011;36332;51.384;0.040;2023-09-19T15:59:09;17.17;;;4.47;;